createdAt,value
2023-04-15T00:01:21.305Z,64.57
2023-04-15T00:03:52.790Z,88.63
2023-04-15T00:06:23.851Z,52.43
2023-04-15T00:08:52.952Z,49.90
2023-04-15T00:11:21.924Z,69.10
2023-04-15T00:13:51.450Z,52.57
2023-04-15T00:16:20.682Z,54.30
2023-04-15T00:19:04.793Z,47.90
2023-04-15T00:21:35.629Z,43.03
2023-04-15T00:24:04.805Z,38.07
2023-04-15T00:26:33.939Z,58.70
2023-04-15T00:29:03.078Z,72.37
2023-04-15T00:31:33.141Z,126.63
2023-04-15T00:34:02.800Z,92.50
2023-04-15T00:36:31.931Z,82.87
2023-04-15T00:39:03.012Z,68.87
2023-04-15T00:41:31.987Z,58.07
2023-04-15T00:44:02.551Z,55.00
2023-04-15T00:46:33.294Z,64.37
2023-04-15T00:49:02.908Z,61.93
2023-04-15T00:51:33.798Z,60.43
2023-04-15T00:54:04.930Z,66.33
2023-04-15T00:56:38.306Z,83.40
2023-04-15T00:59:08.449Z,82.53
2023-04-15T01:01:38.720Z,86.70
2023-04-15T01:04:10.512Z,75.40
2023-04-15T01:06:39.888Z,84.53
2023-04-15T01:09:10.385Z,75.63
2023-04-15T01:11:41.435Z,80.80
2023-04-15T01:14:11.658Z,85.87
2023-04-15T01:16:41.378Z,79.20
2023-04-15T01:19:12.659Z,77.47
2023-04-15T01:22:00.576Z,79.83
2023-04-15T01:24:33.402Z,87.40
2023-04-15T01:27:04.934Z,91.30
2023-04-15T01:29:34.834Z,90.20
2023-04-15T01:32:03.810Z,96.70
2023-04-15T01:34:35.509Z,92.57
2023-04-15T01:37:04.945Z,135.17
2023-04-15T01:39:33.906Z,120.37
2023-04-15T01:42:04.308Z,123.10
2023-04-15T01:44:33.501Z,119.07
2023-04-15T01:47:02.482Z,87.93
2023-04-15T01:49:31.577Z,74.40
2023-04-15T01:52:19.030Z,72.90
2023-04-15T01:54:48.154Z,79.17
2023-04-15T01:57:18.740Z,58.13
2023-04-15T01:59:47.821Z,57.67
2023-04-15T02:02:17.618Z,45.50
2023-04-15T02:04:46.742Z,39.07
2023-04-15T02:07:15.701Z,44.23
2023-04-15T02:09:46.339Z,48.83
2023-04-15T02:12:15.782Z,63.27
2023-04-15T02:14:46.101Z,82.90
2023-04-15T02:17:15.108Z,44.00
2023-04-15T02:20:02.708Z,44.80
2023-04-15T02:22:33.879Z,54.93
2023-04-15T02:25:21.794Z,30.07
2023-04-15T02:27:50.937Z,31.20
2023-04-15T02:30:24.120Z,34.47
2023-04-15T02:32:53.207Z,32.23
2023-04-15T02:35:22.168Z,61.07
2023-04-15T02:37:51.944Z,48.53
2023-04-15T02:40:21.185Z,30.27
2023-04-15T02:42:50.407Z,41.07
2023-04-15T02:45:42.548Z,39.07
2023-04-15T02:48:11.901Z,31.53
2023-04-15T02:50:41.031Z,35.30
2023-04-15T02:53:12.156Z,35.27
2023-04-15T02:55:43.053Z,27.83
2023-04-15T02:58:12.272Z,28.77
2023-04-15T03:00:42.962Z,32.23
2023-04-15T03:03:12.151Z,35.77
2023-04-15T03:05:41.312Z,42.50
2023-04-15T03:08:10.417Z,26.03
2023-04-15T03:10:39.382Z,35.93
2023-04-15T03:13:09.342Z,27.90
2023-04-15T03:15:38.719Z,52.37
2023-04-15T03:18:09.219Z,89.13
2023-04-15T03:20:38.266Z,97.83
2023-04-15T03:23:27.595Z,116.40
2023-04-15T03:26:00.153Z,78.20
2023-04-15T03:28:31.002Z,42.00
2023-04-15T03:31:01.318Z,26.77
2023-04-15T03:33:32.048Z,27.67
2023-04-15T03:36:01.354Z,28.63
2023-04-15T03:38:30.357Z,37.73
2023-04-15T03:40:59.686Z,52.20
2023-04-15T03:43:28.995Z,49.97
2023-04-15T03:45:59.027Z,40.57
2023-04-15T03:48:28.925Z,44.83
2023-04-15T03:50:59.358Z,78.70
2023-04-15T03:53:28.438Z,55.67
2023-04-15T03:55:57.504Z,44.00
2023-04-15T03:58:26.748Z,31.23
2023-04-15T04:00:56.490Z,27.60
2023-04-15T04:03:26.069Z,18.97
2023-04-15T04:05:55.988Z,23.63
2023-04-15T04:08:27.767Z,19.43
2023-04-15T04:10:57.202Z,27.23
2023-04-15T04:13:26.419Z,18.30
2023-04-15T04:15:55.687Z,90.03
2023-04-15T04:18:24.841Z,42.77
2023-04-15T04:21:02.106Z,71.67
2023-04-15T04:23:32.673Z,54.40
2023-04-15T04:26:01.731Z,44.23
2023-04-15T04:28:30.745Z,58.03
2023-04-15T04:30:59.890Z,40.07
2023-04-15T04:33:28.936Z,27.47
2023-04-15T04:35:57.900Z,30.27
2023-04-15T04:38:27.055Z,103.40
2023-04-15T04:40:57.605Z,68.43
2023-04-15T04:43:27.345Z,40.73
2023-04-15T04:45:56.732Z,42.77
2023-04-15T04:48:29.315Z,33.57
2023-04-15T04:51:16.914Z,34.10
2023-04-15T04:53:45.964Z,41.37
2023-04-15T04:56:16.607Z,46.30
2023-04-15T04:58:46.131Z,71.20
2023-04-15T05:01:15.117Z,32.13
2023-04-15T05:03:44.271Z,25.40
2023-04-15T05:06:13.530Z,35.17
2023-04-15T05:08:42.692Z,33.60
2023-04-15T05:11:11.658Z,52.33
2023-04-15T05:13:42.540Z,48.07
2023-04-15T05:16:11.919Z,47.90
2023-04-15T05:18:40.968Z,57.23
2023-04-15T05:21:10.204Z,92.67
2023-04-15T05:23:58.067Z,73.00
2023-04-15T05:26:27.814Z,87.17
2023-04-15T05:28:58.316Z,130.20
2023-04-15T05:31:27.560Z,130.70
2023-04-15T05:33:56.704Z,156.73
2023-04-15T05:36:26.215Z,52.53
2023-04-15T05:38:55.253Z,44.77
2023-04-15T05:41:24.248Z,86.43
2023-04-15T05:43:53.220Z,61.47
2023-04-15T05:46:23.985Z,64.73
2023-04-15T05:49:12.276Z,56.63
2023-04-15T05:51:41.641Z,50.20
2023-04-15T05:54:11.040Z,100.60
2023-04-15T05:56:39.969Z,48.70
2023-04-15T05:59:08.944Z,54.40
2023-04-15T06:01:42.142Z,46.93
2023-04-15T06:04:11.837Z,26.37
2023-04-15T06:06:46.263Z,26.40
2023-04-15T06:09:16.143Z,39.37
2023-04-15T06:11:45.105Z,37.80
2023-04-15T06:14:14.300Z,33.87
2023-04-15T06:16:44.872Z,27.13
2023-04-15T06:19:14.861Z,36.03
2023-04-15T06:22:02.796Z,51.20
2023-04-15T06:24:33.301Z,27.23
2023-04-15T06:27:02.716Z,28.57
2023-04-15T06:29:31.758Z,31.53
2023-04-15T06:32:26.997Z,20.80
2023-04-15T06:35:23.625Z,18.40
2023-04-15T06:37:53.539Z,43.43
2023-04-15T06:40:22.526Z,52.37
2023-04-15T06:42:55.676Z,55.37
2023-04-15T06:45:24.728Z,58.50
2023-04-15T06:47:55.380Z,51.83
2023-04-15T06:50:24.634Z,83.00
2023-04-15T06:52:53.775Z,86.77
2023-04-15T06:55:22.938Z,94.13
2023-04-15T06:57:52.205Z,61.20
2023-04-15T07:00:21.596Z,68.43
2023-04-15T07:02:50.678Z,60.00
2023-04-15T07:05:21.519Z,67.80
2023-04-15T07:07:50.786Z,86.30
2023-04-15T07:10:19.746Z,68.90
2023-04-15T07:12:51.026Z,49.50
2023-04-15T07:15:20.200Z,59.33
2023-04-15T07:17:49.394Z,58.77
2023-04-15T07:20:18.701Z,75.30
2023-04-15T07:22:49.293Z,49.23
2023-04-15T07:25:19.425Z,44.23
2023-04-15T07:27:48.825Z,40.93
2023-04-15T07:30:18.177Z,32.10
2023-04-15T07:32:47.304Z,52.53
2023-04-15T07:35:16.408Z,73.13
2023-04-15T07:37:45.372Z,88.33
2023-04-15T07:40:16.450Z,76.63
2023-04-15T07:42:45.606Z,75.90
2023-04-15T07:45:14.530Z,47.53
2023-04-15T07:47:43.650Z,52.70
2023-04-15T07:50:12.825Z,46.97
2023-04-15T07:52:42.214Z,72.20
2023-04-15T07:55:12.510Z,37.63
2023-04-15T07:57:43.072Z,76.17
2023-04-15T08:00:13.065Z,74.27
2023-04-15T08:02:43.144Z,57.33
2023-04-15T08:05:12.956Z,47.57
2023-04-15T08:07:42.097Z,66.80
2023-04-15T08:10:12.206Z,52.47
2023-04-15T08:12:43.020Z,51.30
2023-04-15T08:15:13.314Z,82.17
2023-04-15T08:17:42.407Z,58.87
2023-04-15T08:20:12.262Z,62.13
2023-04-15T08:22:41.987Z,60.97
2023-04-15T08:25:11.547Z,62.10
2023-04-15T08:27:40.469Z,56.53
2023-04-15T08:30:12.061Z,91.03
2023-04-15T08:32:41.653Z,74.70
2023-04-15T08:35:11.196Z,79.90
2023-04-15T08:37:40.738Z,126.87
2023-04-15T08:40:11.095Z,93.50
2023-04-15T08:42:45.893Z,76.57
2023-04-15T08:45:16.545Z,56.83
2023-04-15T08:47:47.213Z,75.50
2023-04-15T08:50:17.539Z,60.17
2023-04-15T08:52:46.887Z,62.57
2023-04-15T08:55:17.070Z,51.93
2023-04-15T08:57:46.123Z,112.10
2023-04-15T09:00:18.256Z,51.87
2023-04-15T09:02:47.774Z,53.00
2023-04-15T09:05:17.777Z,40.03
2023-04-15T09:07:46.969Z,35.77
2023-04-15T09:10:16.043Z,41.67
2023-04-15T09:12:45.226Z,36.63
2023-04-15T09:15:16.637Z,38.63
2023-04-15T09:17:46.687Z,54.73
2023-04-15T09:20:18.966Z,46.20
2023-04-15T09:22:49.372Z,55.93
2023-04-15T09:25:29.326Z,41.60
2023-04-15T09:28:02.973Z,37.00
2023-04-15T09:30:33.709Z,40.50
2023-04-15T09:33:05.135Z,32.20
2023-04-15T09:35:34.449Z,37.20
2023-04-15T09:38:07.868Z,44.97
2023-04-15T09:40:37.864Z,48.37
2023-04-15T09:43:07.709Z,51.60
2023-04-15T09:45:38.655Z,44.30
2023-04-15T09:48:28.321Z,35.60
2023-04-15T09:51:00.768Z,43.90
2023-04-15T09:53:31.832Z,35.83
2023-04-15T09:56:02.811Z,42.37
2023-04-15T09:58:58.724Z,41.50
2023-04-15T10:01:29.400Z,42.37
2023-04-15T10:03:59.895Z,40.57
2023-04-15T10:06:29.497Z,31.97
2023-04-15T10:08:59.418Z,27.23
2023-04-15T10:11:31.792Z,29.50
2023-04-15T10:14:02.162Z,38.20
2023-04-15T10:16:36.263Z,25.10
2023-04-15T10:19:07.491Z,24.60
2023-04-15T10:21:37.159Z,24.60
2023-04-15T10:24:07.597Z,30.57
2023-04-15T10:26:37.111Z,34.67
2023-04-15T10:29:06.915Z,50.90
2023-04-15T10:31:38.724Z,28.83
2023-04-15T10:34:08.523Z,33.27
2023-04-15T10:36:37.891Z,28.60
2023-04-15T10:39:41.401Z,35.00
2023-04-15T10:42:11.775Z,41.63
2023-04-15T10:44:41.243Z,30.00
2023-04-15T10:47:15.740Z,30.83
2023-04-15T10:49:50.141Z,21.00
2023-04-15T10:52:23.911Z,21.77
2023-04-15T10:55:04.140Z,26.97
2023-04-15T10:57:39.444Z,364.67
2023-04-15T11:00:16.041Z,28.60
2023-04-15T11:02:48.904Z,23.60
2023-04-15T11:05:18.656Z,20.07
2023-04-15T11:07:53.747Z,25.47
2023-04-15T11:11:02.160Z,25.17
2023-04-15T11:13:33.383Z,14.33
2023-04-15T11:16:03.960Z,29.50
2023-04-15T11:18:35.453Z,22.87
2023-04-15T11:21:06.921Z,20.73
2023-04-15T11:23:39.076Z,16.47
2023-04-15T11:26:12.217Z,18.83
2023-04-15T11:28:46.319Z,14.10
2023-04-15T11:31:18.208Z,20.10
2023-04-15T11:33:55.931Z,23.67
2023-04-15T11:36:28.600Z,23.67
2023-04-15T11:38:59.734Z,14.93
2023-04-15T11:41:28.904Z,38.83
2023-04-15T11:43:57.842Z,40.37
2023-04-15T11:46:32.303Z,25.80
2023-04-15T11:49:04.992Z,22.17
2023-04-15T11:51:35.477Z,17.53
2023-04-15T11:54:05.777Z,11.77
2023-04-15T11:56:35.127Z,27.10
2023-04-15T11:59:04.684Z,18.33
2023-04-15T12:01:35.477Z,17.13
2023-04-15T12:04:13.846Z,26.60
2023-04-15T12:06:43.607Z,16.10
2023-04-15T12:09:14.146Z,23.07
2023-04-15T12:11:47.785Z,18.43
2023-04-15T12:14:36.909Z,20.00
2023-04-15T12:17:07.116Z,17.70
2023-04-15T12:19:42.690Z,22.70
2023-04-15T12:22:14.161Z,27.27
2023-04-15T12:24:48.164Z,31.97
2023-04-15T12:27:18.713Z,41.90
2023-04-15T12:29:47.896Z,30.13
2023-04-15T12:32:17.701Z,49.63
2023-04-15T12:34:53.238Z,30.10
2023-04-15T12:37:40.637Z,32.53
2023-04-15T12:40:11.198Z,30.53
2023-04-15T12:42:40.328Z,32.23
2023-04-15T12:45:09.846Z,34.40
2023-04-15T12:47:38.808Z,29.30
2023-04-15T12:50:10.677Z,27.90
2023-04-15T12:52:40.083Z,38.30
2023-04-15T12:55:12.519Z,32.80
2023-04-15T12:57:41.564Z,23.03
2023-04-15T13:00:19.041Z,73.63
2023-04-15T13:02:49.518Z,38.17
2023-04-15T13:05:23.019Z,41.03
2023-04-15T13:07:52.461Z,32.60
2023-04-15T13:10:22.296Z,33.17
2023-04-15T13:12:53.749Z,29.60
2023-04-15T13:15:22.888Z,35.17
2023-04-15T13:17:52.279Z,38.37
2023-04-15T13:20:22.833Z,61.87
2023-04-15T13:22:53.652Z,53.00
2023-04-15T13:25:22.886Z,44.87
2023-04-15T13:27:52.546Z,60.77
2023-04-15T13:30:21.681Z,66.57
2023-04-15T13:32:51.519Z,52.87
2023-04-15T13:35:22.205Z,41.33
2023-04-15T13:37:51.523Z,41.50
2023-04-15T13:40:21.965Z,26.00
2023-04-15T13:42:51.001Z,37.43
2023-04-15T13:45:20.185Z,22.47
2023-04-15T13:47:53.792Z,15.13
2023-04-15T13:50:24.897Z,23.80
2023-04-15T13:52:54.136Z,19.17
2023-04-15T13:55:25.460Z,28.03
2023-04-15T13:57:55.617Z,50.97
2023-04-15T14:00:24.731Z,31.37
2023-04-15T14:02:53.873Z,41.97
2023-04-15T14:05:24.467Z,43.47
2023-04-15T14:07:53.796Z,24.73
2023-04-15T14:10:22.805Z,32.33
2023-04-15T14:12:52.125Z,23.40
2023-04-15T14:15:21.184Z,22.63
2023-04-15T14:17:50.546Z,24.10
2023-04-15T14:20:19.769Z,21.33
2023-04-15T14:22:50.707Z,35.70
2023-04-15T14:25:30.392Z,36.67
2023-04-15T14:28:02.357Z,28.63
2023-04-15T14:30:31.371Z,31.17
2023-04-15T14:33:00.632Z,26.90
2023-04-15T14:35:29.728Z,28.90
2023-04-15T14:38:00.291Z,47.27
2023-04-15T14:40:29.550Z,56.97
2023-04-15T14:42:58.531Z,67.87
2023-04-15T14:45:27.499Z,41.17
2023-04-15T14:47:56.602Z,36.33
2023-04-15T14:50:25.731Z,21.93
2023-04-15T14:52:54.724Z,44.07
2023-04-15T14:55:25.271Z,79.23
2023-04-15T14:57:54.419Z,56.83
2023-04-15T15:00:23.566Z,64.00
2023-04-15T15:02:52.578Z,33.00
2023-04-15T15:05:21.977Z,27.63
2023-04-15T15:07:51.321Z,35.63
2023-04-15T15:10:32.859Z,58.23
2023-04-15T15:13:13.273Z,30.57
2023-04-15T15:15:42.809Z,47.60
2023-04-15T15:18:12.373Z,30.50
2023-04-15T15:20:41.484Z,25.53
2023-04-15T15:23:10.745Z,34.60
2023-04-15T15:25:39.996Z,23.27
2023-04-15T15:28:09.134Z,23.57
2023-04-15T15:30:39.510Z,24.37
2023-04-15T15:33:08.696Z,22.50
2023-04-15T15:35:37.813Z,32.03
2023-04-15T15:38:06.757Z,25.40
2023-04-15T15:40:36.174Z,17.67
2023-04-15T15:43:05.838Z,20.37
2023-04-15T15:45:35.059Z,39.03
2023-04-15T15:48:06.158Z,38.40
2023-04-15T15:50:54.604Z,37.63
2023-04-15T15:53:25.339Z,53.97
2023-04-15T15:55:54.530Z,41.80
2023-04-15T15:58:23.594Z,55.80
2023-04-15T16:00:52.722Z,36.57
2023-04-15T16:03:41.903Z,35.47
2023-04-15T16:06:11.214Z,38.37
2023-04-15T16:08:40.462Z,35.17
2023-04-15T16:11:09.583Z,31.60
2023-04-15T16:13:38.647Z,44.20
2023-04-15T16:16:08.013Z,36.77
2023-04-15T16:18:37.166Z,31.83
2023-04-15T16:21:08.017Z,36.77
2023-04-15T16:23:38.577Z,44.10
2023-04-15T16:26:08.037Z,79.53
2023-04-15T16:28:37.001Z,96.30
2023-04-15T16:31:06.265Z,78.63
2023-04-15T16:33:35.347Z,51.67
2023-04-15T16:36:04.436Z,61.30
2023-04-15T16:38:34.984Z,54.67
2023-04-15T16:41:04.339Z,47.37
2023-04-15T16:43:33.272Z,34.47
2023-04-15T16:46:02.477Z,47.47
2023-04-15T16:48:31.654Z,51.33
2023-04-15T16:51:00.754Z,53.93
2023-04-15T16:53:29.936Z,94.80
2023-04-15T16:56:00.360Z,62.13
2023-04-15T16:58:29.411Z,83.37
2023-04-15T17:00:59.753Z,64.50
2023-04-15T17:03:30.415Z,38.47
2023-04-15T17:05:59.522Z,53.63
2023-04-15T17:08:28.554Z,63.03
2023-04-15T17:11:00.182Z,71.90
2023-04-15T17:13:29.509Z,78.37
2023-04-15T17:15:58.479Z,82.13
2023-04-15T17:18:28.315Z,102.63
2023-04-15T17:20:57.425Z,47.03
2023-04-15T17:23:27.413Z,54.70
2023-04-15T17:25:56.536Z,53.93
2023-04-15T17:28:27.137Z,49.63
2023-04-15T17:31:15.044Z,74.10
2023-04-15T17:34:00.218Z,40.23
2023-04-15T17:36:39.301Z,46.00
2023-04-15T17:39:08.462Z,46.00
2023-04-15T17:41:37.695Z,47.23
2023-04-15T17:44:08.948Z,43.73
2023-04-15T17:46:38.166Z,45.17
2023-04-15T17:49:07.887Z,48.20
2023-04-15T17:51:38.302Z,99.00
2023-04-15T17:54:14.529Z,80.73
2023-04-15T17:56:44.696Z,77.57
2023-04-15T17:59:16.584Z,77.40
2023-04-15T18:01:50.726Z,72.17
2023-04-15T18:04:20.621Z,69.93
2023-04-15T18:06:49.809Z,86.23
2023-04-15T18:09:19.172Z,62.53
2023-04-15T18:11:49.241Z,105.77
2023-04-15T18:14:33.006Z,86.33
2023-04-15T18:17:04.131Z,64.47
2023-04-15T18:19:33.880Z,50.77
2023-04-15T18:22:03.477Z,51.90
2023-04-15T18:24:33.886Z,27.33
2023-04-15T18:27:07.778Z,35.63
2023-04-15T18:29:39.603Z,41.60
2023-04-15T18:32:08.742Z,31.13
2023-04-15T18:34:39.772Z,28.83
2023-04-15T18:37:08.845Z,62.90
2023-04-15T18:39:37.893Z,48.83
2023-04-15T18:42:06.871Z,44.67
2023-04-15T18:44:41.060Z,54.77
2023-04-15T18:47:12.612Z,46.47
2023-04-15T18:49:41.819Z,39.50
2023-04-15T18:52:11.771Z,48.77
2023-04-15T18:54:40.754Z,45.43
2023-04-15T18:57:10.067Z,49.57
2023-04-15T18:59:39.183Z,71.77
2023-04-15T19:02:09.162Z,45.07
2023-04-15T19:04:39.712Z,33.87
2023-04-15T19:07:09.944Z,31.00
2023-04-15T19:09:38.983Z,24.73
2023-04-15T19:12:08.137Z,26.23
2023-04-15T19:14:37.155Z,20.50
2023-04-15T19:17:06.492Z,19.43
2023-04-15T19:19:35.459Z,19.93
2023-04-15T19:22:06.416Z,17.90
2023-04-15T19:24:35.726Z,17.60
2023-04-15T19:27:04.981Z,32.80
2023-04-15T19:29:34.541Z,58.77
2023-04-15T19:32:03.496Z,33.37
2023-04-15T19:34:32.486Z,28.50
2023-04-15T19:37:02.145Z,31.87
2023-04-15T19:39:51.677Z,52.20
2023-04-15T19:42:20.732Z,64.87
2023-04-15T19:44:49.791Z,65.93
2023-04-15T19:47:18.766Z,60.73
2023-04-15T19:49:47.861Z,72.13
2023-04-15T19:52:16.961Z,69.60
2023-04-15T19:54:46.045Z,71.23
2023-04-15T19:57:16.835Z,51.33
2023-04-15T19:59:46.042Z,61.20
2023-04-15T20:02:15.198Z,64.30
2023-04-15T20:04:49.160Z,62.23
2023-04-15T20:07:20.140Z,97.63
2023-04-15T20:09:49.334Z,57.47
2023-04-15T20:12:49.233Z,40.57
2023-04-15T20:15:12.336Z,41.27
2023-04-15T20:17:41.548Z,109.87
2023-04-15T20:20:10.864Z,112.63
2023-04-15T20:22:39.836Z,90.93
2023-04-15T20:25:09.876Z,86.27
2023-04-15T20:27:40.633Z,87.13
2023-04-15T20:30:16.031Z,65.63
2023-04-15T20:32:45.414Z,117.40
2023-04-15T20:35:14.537Z,102.67
2023-04-15T20:37:45.509Z,103.47
2023-04-15T20:40:16.255Z,114.20
2023-04-15T20:42:46.859Z,99.37
2023-04-15T20:45:16.231Z,113.60
2023-04-15T20:47:45.341Z,104.13
2023-04-15T20:50:14.794Z,100.50
2023-04-15T20:52:44.024Z,104.00
2023-04-15T20:55:13.163Z,86.93
2023-04-15T20:57:43.212Z,111.53
2023-04-15T21:00:15.054Z,129.17
2023-04-15T21:02:44.662Z,86.60
2023-04-15T21:05:13.778Z,80.63
2023-04-15T21:07:42.771Z,78.80
2023-04-15T21:10:12.323Z,92.43
2023-04-15T21:12:41.439Z,277.73
2023-04-15T21:15:12.923Z,260.27
2023-04-15T21:17:42.122Z,270.67
2023-04-15T21:20:12.377Z,240.00
2023-04-15T21:22:41.606Z,115.50
2023-04-15T21:25:11.571Z,84.43
2023-04-15T21:27:41.624Z,75.07
2023-04-15T21:30:14.582Z,96.03
2023-04-15T21:32:44.089Z,81.53
2023-04-15T21:35:13.625Z,68.00
2023-04-15T21:37:42.681Z,85.17
2023-04-15T21:40:12.634Z,87.23
2023-04-15T21:42:42.591Z,88.60
2023-04-15T21:45:13.939Z,99.40
2023-04-15T21:48:01.183Z,110.20
2023-04-15T21:50:32.159Z,123.13
2023-04-15T21:53:01.317Z,137.23
2023-04-15T21:55:30.313Z,145.20
2023-04-15T21:57:59.473Z,181.83
2023-04-15T22:00:29.918Z,165.53
2023-04-15T22:02:59.103Z,181.27
2023-04-15T22:05:28.248Z,177.97
2023-04-15T22:07:58.413Z,218.03
2023-04-15T22:10:27.597Z,217.03
2023-04-15T22:13:01.504Z,184.37
2023-04-15T22:15:32.152Z,194.27
2023-04-15T22:18:01.334Z,164.63
2023-04-15T22:20:30.455Z,168.87
2023-04-15T22:22:59.539Z,165.43
2023-04-15T22:25:28.648Z,181.33
2023-04-15T22:27:57.601Z,171.27
2023-04-15T22:30:27.038Z,149.87
2023-04-15T22:32:57.522Z,169.67
2023-04-15T22:35:45.129Z,186.87
2023-04-15T22:38:14.150Z,171.30
2023-04-15T22:40:43.207Z,156.13
2023-04-15T22:43:12.511Z,155.90
2023-04-15T22:45:41.595Z,142.40
2023-04-15T22:48:12.188Z,132.60
2023-04-15T22:50:41.333Z,146.13
2023-04-15T22:53:10.299Z,140.57
2023-04-15T22:55:39.370Z,137.30
2023-04-15T22:58:08.358Z,130.57
2023-04-15T23:00:37.385Z,137.93
2023-04-15T23:03:06.764Z,140.87
2023-04-15T23:05:56.766Z,133.90
2023-04-15T23:08:25.781Z,144.23
2023-04-15T23:10:54.889Z,127.10
2023-04-15T23:13:23.804Z,119.87
2023-04-15T23:15:52.821Z,112.03
2023-04-15T23:18:22.017Z,75.33
2023-04-15T23:20:51.026Z,77.47
2023-04-15T23:23:21.436Z,92.40
2023-04-15T23:25:50.818Z,101.60
2023-04-15T23:28:19.840Z,100.77
2023-04-15T23:30:48.793Z,93.77
2023-04-15T23:33:17.843Z,95.97
2023-04-15T23:35:46.873Z,109.30
2023-04-15T23:38:15.861Z,88.90
2023-04-15T23:40:46.356Z,91.40
2023-04-15T23:43:15.580Z,69.80
2023-04-15T23:45:44.583Z,63.97
2023-04-15T23:48:13.543Z,50.10
2023-04-15T23:50:42.659Z,59.87
2023-04-15T23:53:11.666Z,55.20
2023-04-15T23:55:40.723Z,51.77
2023-04-15T23:58:12.024Z,48.13
